Hlavní strana
METAR-TAF:

METAR-TAF

Letiště :

Bad Vöslau, Rakousko

zeměpisná šířka: 47-57-52N, zeměpisná délka: 016-15-34E, výška: 233 m

Aktuální stav počasí

Zpráva byla vytvořena před 11 hodinami a 51 minutami, v 17:00 UTC
Východní vítr 5 kt
Teplota 19°C
Vlhkost vzduchu 22%
Tlak

METAR: LOAV 201700Z 09005KT 40KM FEW300CI 19/M03

Čas: 06:51 (04:51 UTC)

Předpověď počasí

Zpráva byla vytvořena před 17 hodinami a 26 minutami, v 11:25 UTC
Předpověď platná od 20 v 12 UTC do 20 v 21 UTC
vítr z různých směrů 2 kt
Viditelnost 10 km a více
Jasno
Dočasný
od 20 v 12 UTC do 20 v 18 UTC
Východní vítr 8 kt
Skoro jasno ve výšce 5000 ft

TAF: LOAV 201125Z 2012/2021 VRB02KT 9999 SKC TEMPO 2012/2018 08008KT FEW050

Stav a předpovědi počasí z více než 4 000 letišť (zprávy METAR a TAF).

Červené a žluté tečky na mapě představují dostupné meteorologické stanice.

Když kurzor umístíte na tečku, zobrazí se název stanice.

Pak kliknutím zobrazíte stav a předpověď počasí.

Chcete-li změnit mapu, kliknutím na zelené tlačítko se znaménkem +mapu přiblížíte, kliknutím na zelené tlačítko se znaménkem – mapu oddálíte a kliknutím na zelené šipky přejdete na sousední mapy.


METAR-TAF: